sensor_id;sensor_type;location;lat;lon;timestamp;pressure;altitude;pressure_sealevel;temperature;humidity
1616;BME280;801;47.982;7.810;2022-07-23T02:32:56;98602.78;;;22.75;100.00
1616;BME280;801;47.982;7.810;2022-07-23T02:35:22;98594.88;;;22.86;100.00
1616;BME280;801;47.982;7.810;2022-07-23T02:37:49;98599.72;;;23.02;100.00
1616;BME280;801;47.982;7.810;2022-07-23T02:40:16;98598.56;;;22.78;100.00
1616;BME280;801;47.982;7.810;2022-07-23T02:42:43;98594.09;;;22.86;100.00
1616;BME280;801;47.982;7.810;2022-07-23T02:45:10;98603.47;;;22.85;100.00
1616;BME280;801;47.982;7.810;2022-07-23T02:47:36;98608.81;;;22.81;100.00
1616;BME280;801;47.982;7.810;2022-07-23T02:50:05;98592.72;;;22.92;100.00
1616;BME280;801;47.982;7.810;2022-07-23T02:52:32;98595.59;;;22.95;100.00
1616;BME280;801;47.982;7.810;2022-07-23T02:54:59;98608.25;;;22.88;100.00
1616;BME280;801;47.982;7.810;2022-07-23T02:57:25;98606.75;;;22.90;100.00
1616;BME280;801;47.982;7.810;2022-07-23T02:59:52;98594.22;;;22.89;100.00
1616;BME280;801;47.982;7.810;2022-07-23T03:02:18;98599.13;;;22.96;100.00
1616;BME280;801;47.982;7.810;2022-07-23T03:04:45;98602.66;;;22.96;100.00
1616;BME280;801;47.982;7.810;2022-07-23T03:07:13;98605.41;;;22.96;100.00
1616;BME280;801;47.982;7.810;2022-07-23T03:09:39;98619.91;;;22.85;100.00
1616;BME280;801;47.982;7.810;2022-07-23T03:12:07;98629.38;;;22.87;100.00
1616;BME280;801;47.982;7.810;2022-07-23T03:14:33;98626.59;;;22.75;100.00
1616;BME280;801;47.982;7.810;2022-07-23T03:17:00;98626.59;;;22.75;100.00
1616;BME280;801;47.982;7.810;2022-07-23T03:19:26;98629.34;;;22.75;100.00
1616;BME280;801;47.982;7.810;2022-07-23T03:21:52;98627.16;;;22.68;100.00
1616;BME280;801;47.982;7.810;2022-07-23T03:24:20;98626.38;;;22.68;100.00
1616;BME280;801;47.982;7.810;2022-07-23T03:26:48;98625.69;;;22.58;100.00
1616;BME280;801;47.982;7.810;2022-07-23T03:29:15;98635.38;;;22.56;100.00
1616;BME280;801;47.982;7.810;2022-07-23T03:31:42;98650.72;;;22.36;100.00
1616;BME280;801;47.982;7.810;2022-07-23T03:34:09;98662.06;;;22.26;100.00
1616;BME280;801;47.982;7.810;2022-07-23T03:36:35;98675.06;;;22.08;100.00
1616;BME280;801;47.982;7.810;2022-07-23T03:39:02;98684.81;;;22.17;100.00
1616;BME280;801;47.982;7.810;2022-07-23T03:41:30;98688.56;;;21.92;100.00
1616;BME280;801;47.982;7.810;2022-07-23T03:43:56;98688.69;;;21.36;100.00
1616;BME280;801;47.982;7.810;2022-07-23T03:46:23;98680.16;;;21.08;100.00
1616;BME280;801;47.982;7.810;2022-07-23T03:48:49;98677.09;;;21.09;100.00
1616;BME280;801;47.982;7.810;2022-07-23T03:51:16;98649.56;;;20.76;100.00
1616;BME280;801;47.982;7.810;2022-07-23T03:53:42;98640.97;;;20.57;100.00
1616;BME280;801;47.982;7.810;2022-07-23T03:56:09;98650.25;;;20.56;100.00
1616;BME280;801;47.982;7.810;2022-07-23T03:58:37;98662.13;;;20.77;100.00
1616;BME280;801;47.982;7.810;2022-07-23T04:01:03;98660.91;;;20.96;100.00
1616;BME280;801;47.982;7.810;2022-07-23T04:03:29;98646.03;;;21.14;100.00
1616;BME280;801;47.982;7.810;2022-07-23T04:05:56;98645.44;;;21.47;100.00
1616;BME280;801;47.982;7.810;2022-07-23T04:08:22;98639.38;;;21.62;100.00
1616;BME280;801;47.982;7.810;2022-07-23T04:10:50;98652.19;;;21.70;100.00
1616;BME280;801;47.982;7.810;2022-07-23T04:13:16;98654.94;;;21.41;100.00
1616;BME280;801;47.982;7.810;2022-07-23T04:15:44;98650.69;;;21.22;100.00
1616;BME280;801;47.982;7.810;2022-07-23T04:18:11;98657.97;;;21.48;100.00
1616;BME280;801;47.982;7.810;2022-07-23T04:20:37;98651.53;;;21.73;100.00
1616;BME280;801;47.982;7.810;2022-07-23T04:23:04;98647.59;;;21.83;100.00
1616;BME280;801;47.982;7.810;2022-07-23T04:25:31;98652.53;;;21.90;100.00
1616;BME280;801;47.982;7.810;2022-07-23T04:27:57;98660.00;;;21.60;100.00
1616;BME280;801;47.982;7.810;2022-07-23T04:30:24;98660.47;;;21.83;100.00
1616;BME280;801;47.982;7.810;2022-07-23T04:32:51;98655.97;;;21.99;100.00
1616;BME280;801;47.982;7.810;2022-07-23T04:35:18;98664.59;;;22.10;100.00
1616;BME280;801;47.982;7.810;2022-07-23T04:37:44;98668.88;;;21.98;100.00
1616;BME280;801;47.982;7.810;2022-07-23T04:40:12;98675.28;;;22.03;100.00
1616;BME280;801;47.982;7.810;2022-07-23T04:42:38;98676.16;;;22.15;100.00
1616;BME280;801;47.982;7.810;2022-07-23T04:45:06;98675.44;;;22.27;100.00
1616;BME280;801;47.982;7.810;2022-07-23T04:47:32;98666.13;;;22.20;100.00
1616;BME280;801;47.982;7.810;2022-07-23T04:50:00;98669.38;;;22.22;100.00
1616;BME280;801;47.982;7.810;2022-07-23T04:52:27;98668.63;;;22.33;100.00
1616;BME280;801;47.982;7.810;2022-07-23T04:54:53;98679.41;;;22.30;100.00
1616;BME280;801;47.982;7.810;2022-07-23T04:57:20;98675.88;;;22.29;100.00
1616;BME280;801;47.982;7.810;2022-07-23T04:59:46;98676.69;;;22.30;100.00
1616;BME280;801;47.982;7.810;2022-07-23T05:02:13;98675.09;;;22.29;100.00
1616;BME280;801;47.982;7.810;2022-07-23T05:04:39;98685.38;;;22.32;100.00
1616;BME280;801;47.982;7.810;2022-07-23T05:07:07;98674.09;;;22.33;100.00
1616;BME280;801;47.982;7.810;2022-07-23T05:09:34;98676.38;;;22.44;100.00
1616;BME280;801;47.982;7.810;2022-07-23T05:12:01;98678.56;;;22.38;100.00
1616;BME280;801;47.982;7.810;2022-07-23T05:14:27;98678.78;;;22.33;100.00
1616;BME280;801;47.982;7.810;2022-07-23T05:16:54;98675.03;;;22.37;100.00
1616;BME280;801;47.982;7.810;2022-07-23T05:19:21;98661.75;;;22.61;100.00
1616;BME280;801;47.982;7.810;2022-07-23T05:21:47;98659.94;;;22.65;100.00
1616;BME280;801;47.982;7.810;2022-07-23T05:24:15;98661.75;;;22.61;100.00
1616;BME280;801;47.982;7.810;2022-07-23T05:26:42;98664.47;;;22.61;100.00
1616;BME280;801;47.982;7.810;2022-07-23T05:29:08;98667.13;;;22.69;100.00
1616;BME280;801;47.982;7.810;2022-07-23T05:31:35;98665.50;;;22.68;100.00
1616;BME280;801;47.982;7.810;2022-07-23T05:34:01;98677.03;;;22.62;100.00
1616;BME280;801;47.982;7.810;2022-07-23T05:36:28;98682.97;;;22.64;100.00
1616;BME280;801;47.982;7.810;2022-07-23T05:38:54;98672.97;;;22.80;100.00
1616;BME280;801;47.982;7.810;2022-07-23T05:41:22;98679.38;;;22.84;100.00
1616;BME280;801;47.982;7.810;2022-07-23T05:43:49;98685.19;;;22.95;100.00
1616;BME280;801;47.982;7.810;2022-07-23T05:46:15;98692.28;;;22.96;100.00
1616;BME280;801;47.982;7.810;2022-07-23T05:48:42;98694.19;;;22.37;100.00
1616;BME280;801;47.982;7.810;2022-07-23T05:51:11;98697.56;;;22.55;100.00
1616;BME280;801;47.982;7.810;2022-07-23T05:53:38;98699.97;;;22.15;100.00
1616;BME280;801;47.982;7.810;2022-07-23T05:56:04;98698.16;;;22.19;100.00
1616;BME280;801;47.982;7.810;2022-07-23T05:58:32;98707.69;;;22.22;100.00
1616;BME280;801;47.982;7.810;2022-07-23T06:00:59;98709.59;;;22.00;100.00
1616;BME280;801;47.982;7.810;2022-07-23T06:03:25;98710.44;;;21.92;100.00
1616;BME280;801;47.982;7.810;2022-07-23T06:05:52;98709.38;;;22.05;100.00
1616;BME280;801;47.982;7.810;2022-07-23T06:08:18;98727.25;;;22.03;100.00
1616;BME280;801;47.982;7.810;2022-07-23T06:10:44;98726.06;;;22.12;100.00
1616;BME280;801;47.982;7.810;2022-07-23T06:13:11;98718.19;;;22.11;100.00
1616;BME280;801;47.982;7.810;2022-07-23T06:15:39;98732.59;;;21.99;100.00
1616;BME280;801;47.982;7.810;2022-07-23T06:18:05;98726.75;;;22.09;100.00
1616;BME280;801;47.982;7.810;2022-07-23T06:20:32;98730.63;;;22.08;100.00
1616;BME280;801;47.982;7.810;2022-07-23T06:22:58;98728.88;;;22.04;100.00
1616;BME280;801;47.982;7.810;2022-07-23T06:25:25;98719.84;;;22.03;100.00
1616;BME280;801;47.982;7.810;2022-07-23T06:27:52;98721.25;;;22.09;100.00
1616;BME280;801;47.982;7.810;2022-07-23T06:30:18;98724.72;;;22.18;100.00
1616;BME280;801;47.982;7.810;2022-07-23T06:32:47;98726.06;;;22.12;100.00
1616;BME280;801;47.982;7.810;2022-07-23T06:35:14;98727.06;;;21.87;100.00
1616;BME280;801;47.982;7.810;2022-07-23T06:37:40;98741.69;;;21.91;100.00
1616;BME280;801;47.982;7.810;2022-07-23T06:40:08;98733.47;;;21.91;100.00
1616;BME280;801;47.982;7.810;2022-07-23T06:42:34;98735.09;;;21.83;100.00
1616;BME280;801;47.982;7.810;2022-07-23T06:45:02;98731.69;;;21.95;100.00
1616;BME280;801;47.982;7.810;2022-07-23T06:47:29;98734.47;;;22.07;100.00
1616;BME280;801;47.982;7.810;2022-07-23T06:49:57;98738.94;;;21.91;100.00
1616;BME280;801;47.982;7.810;2022-07-23T06:52:24;98738.22;;;22.03;100.00
1616;BME280;801;47.982;7.810;2022-07-23T06:54:51;98747.38;;;22.07;100.00
1616;BME280;801;47.982;7.810;2022-07-23T06:57:17;98752.63;;;22.12;100.00
1616;BME280;801;47.982;7.810;2022-07-23T06:59:44;98748.47;;;22.35;100.00
1616;BME280;801;47.982;7.810;2022-07-23T07:02:10;98745.03;;;22.59;100.00
1616;BME280;801;47.982;7.810;2022-07-23T07:04:37;98739.38;;;22.77;100.00
1616;BME280;801;47.982;7.810;2022-07-23T07:07:05;98754.72;;;22.90;100.00
1616;BME280;801;47.982;7.810;2022-07-23T07:09:31;98759.72;;;22.88;100.00
1616;BME280;801;47.982;7.810;2022-07-23T07:14:24;98758.06;;;22.63;100.00
1616;BME280;801;47.982;7.810;2022-07-23T07:16:50;98762.34;;;22.51;100.00
1616;BME280;801;47.982;7.810;2022-07-23T07:19:17;98773.41;;;22.76;100.00
1616;BME280;801;47.982;7.810;2022-07-23T07:21:43;98772.25;;;22.77;100.00
1616;BME280;801;47.982;7.810;2022-07-23T07:24:11;98773.72;;;22.95;100.00
1616;BME280;801;47.982;7.810;2022-07-23T07:26:38;98779.66;;;22.97;100.00
1616;BME280;801;47.982;7.810;2022-07-23T07:29:05;98790.47;;;22.94;100.00
1616;BME280;801;47.982;7.810;2022-07-23T07:31:32;98797.75;;;22.90;100.00
1616;BME280;801;47.982;7.810;2022-07-23T07:33:59;98798.84;;;22.97;100.00
1616;BME280;801;47.982;7.810;2022-07-23T07:36:25;98798.56;;;22.90;100.00
1616;BME280;801;47.982;7.810;2022-07-23T07:38:52;98793.81;;;22.99;100.00
1616;BME280;801;47.982;7.810;2022-07-23T07:41:20;98800.84;;;23.09;100.00
1616;BME280;801;47.982;7.810;2022-07-23T07:43:49;98799.34;;;23.12;100.00
1616;BME280;801;47.982;7.810;2022-07-23T07:46:15;98803.34;;;23.14;100.00
1616;BME280;801;47.982;7.810;2022-07-23T07:48:42;98813.38;;;23.10;100.00
1616;BME280;801;47.982;7.810;2022-07-23T07:51:08;98805.66;;;23.25;100.00
1616;BME280;801;47.982;7.810;2022-07-23T07:53:35;98800.59;;;23.60;100.00
1616;BME280;801;47.982;7.810;2022-07-23T07:56:01;98805.44;;;23.30;100.00
1616;BME280;801;47.982;7.810;2022-07-23T07:58:29;98814.03;;;23.53;100.00
1616;BME280;801;47.982;7.810;2022-07-23T08:00:56;98816.78;;;23.53;100.00
1616;BME280;801;47.982;7.810;2022-07-23T08:03:22;98815.44;;;23.59;100.00
1616;BME280;801;47.982;7.810;2022-07-23T08:05:49;98813.63;;;23.63;100.00
1616;BME280;801;47.982;7.810;2022-07-23T08:08:15;98819.66;;;23.69;100.00
1616;BME280;801;47.982;7.810;2022-07-23T08:10:42;98807.69;;;23.86;100.00
1616;BME280;801;47.982;7.810;2022-07-23T08:13:12;98813.63;;;23.75;100.00
1616;BME280;801;47.982;7.810;2022-07-23T08:15:40;98800.22;;;23.61;100.00
1616;BME280;801;47.982;7.810;2022-07-23T08:18:08;98803.09;;;24.02;100.00
1616;BME280;801;47.982;7.810;2022-07-23T08:20:34;98805.09;;;23.89;100.00
1616;BME280;801;47.982;7.810;2022-07-23T08:23:04;98801.84;;;24.12;100.00
1616;BME280;801;47.982;7.810;2022-07-23T08:25:31;98810.84;;;24.37;100.00
1616;BME280;801;47.982;7.810;2022-07-23T08:28:00;98813.06;;;24.19;100.00
1616;BME280;801;47.982;7.810;2022-07-23T08:30:27;98817.38;;;24.32;100.00
1616;BME280;801;47.982;7.810;2022-07-23T08:32:56;98817.94;;;24.50;100.00
1616;BME280;801;47.982;7.810;2022-07-23T08:35:27;98819.84;;;24.62;100.00
1616;BME280;801;47.982;7.810;2022-07-23T08:37:54;98818.41;;;24.52;100.00
1616;BME280;801;47.982;7.810;2022-07-23T08:40:21;98819.56;;;24.27;100.00
1616;BME280;801;47.982;7.810;2022-07-23T08:42:50;98818.38;;;24.40;100.00
1616;BME280;801;47.982;7.810;2022-07-23T08:45:18;98826.63;;;24.52;100.00
1616;BME280;801;47.982;7.810;2022-07-23T08:47:48;98824.69;;;24.53;100.00
1616;BME280;801;47.982;7.810;2022-07-23T08:50:17;98812.72;;;24.73;100.00
1616;BME280;801;47.982;7.810;2022-07-23T08:52:44;98814.25;;;24.86;100.00
1616;BME280;801;47.982;7.810;2022-07-23T08:55:11;98812.97;;;24.96;100.00
1616;BME280;801;47.982;7.810;2022-07-23T08:57:38;98819.25;;;24.97;100.00
1616;BME280;801;47.982;7.810;2022-07-23T09:00:05;98823.22;;;24.83;100.00
1616;BME280;801;47.982;7.810;2022-07-23T09:02:38;98814.31;;;25.02;100.00
1616;BME280;801;47.982;7.810;2022-07-23T09:05:05;98812.75;;;24.89;100.00
1616;BME280;801;47.982;7.810;2022-07-23T09:07:33;98809.25;;;25.33;100.00
1616;BME280;801;47.982;7.810;2022-07-23T09:10:08;98816.72;;;25.48;100.00
1616;BME280;801;47.982;7.810;2022-07-23T09:12:35;98821.31;;;25.28;100.00
1616;BME280;801;47.982;7.810;2022-07-23T09:15:06;98817.41;;;25.45;100.00
1616;BME280;801;47.982;7.810;2022-07-23T09:17:37;98818.41;;;25.53;100.00
1616;BME280;801;47.982;7.810;2022-07-23T09:20:08;98819.91;;;25.50;100.00
1616;BME280;801;47.982;7.810;2022-07-23T09:22:36;98816.72;;;25.48;100.00
1616;BME280;801;47.982;7.810;2022-07-23T09:25:09;98828.88;;;25.63;100.00
1616;BME280;801;47.982;7.810;2022-07-23T09:27:48;98822.41;;;25.71;100.00
1616;BME280;801;47.982;7.810;2022-07-23T09:30:15;98821.16;;;25.68;100.00
1616;BME280;801;47.982;7.810;2022-07-23T09:32:42;98813.63;;;25.65;100.00
1616;BME280;801;47.982;7.810;2022-07-23T09:35:08;98819.53;;;25.52;100.00
1616;BME280;801;47.982;7.810;2022-07-23T09:37:37;98814.13;;;25.71;100.00
1616;BME280;801;47.982;7.810;2022-07-23T09:40:05;98820.34;;;25.84;100.00
1616;BME280;801;47.982;7.810;2022-07-23T09:42:32;98820.19;;;25.93;100.00
1616;BME280;801;47.982;7.810;2022-07-23T09:44:59;98821.44;;;25.79;100.00
1616;BME280;801;47.982;7.810;2022-07-23T09:47:27;98824.78;;;26.04;100.00
1616;BME280;801;47.982;7.810;2022-07-23T09:50:01;98828.75;;;26.23;100.00
1616;BME280;801;47.982;7.810;2022-07-23T09:52:32;98825.72;;;26.28;100.00
1616;BME280;801;47.982;7.810;2022-07-23T09:55:02;98826.81;;;26.23;100.00
1616;BME280;801;47.982;7.810;2022-07-23T09:57:29;98835.28;;;26.69;100.00
1616;BME280;801;47.982;7.810;2022-07-23T10:00:00;98825.16;;;26.74;100.00
1616;BME280;801;47.982;7.810;2022-07-23T10:02:28;98826.94;;;26.85;97.80
1616;BME280;801;47.982;7.810;2022-07-23T10:04:57;98836.88;;;27.09;94.95
1616;BME280;801;47.982;7.810;2022-07-23T10:07:26;98845.66;;;27.15;92.41
1616;BME280;801;47.982;7.810;2022-07-23T10:09:55;98835.53;;;26.45;91.02
1616;BME280;801;47.982;7.810;2022-07-23T10:12:24;98832.78;;;26.45;89.30
1616;BME280;801;47.982;7.810;2022-07-23T10:15:05;98841.78;;;26.42;91.40
1616;BME280;801;47.982;7.810;2022-07-23T10:17:32;98838.72;;;27.02;89.92
1616;BME280;801;47.982;7.810;2022-07-23T10:19:58;98841.31;;;26.95;93.76
1616;BME280;801;47.982;7.810;2022-07-23T10:22:27;98851.91;;;27.12;92.04
1616;BME280;801;47.982;7.810;2022-07-23T10:25:02;98844.00;;;27.10;93.09
1616;BME280;801;47.982;7.810;2022-07-23T10:27:44;98845.16;;;26.90;94.54
1616;BME280;801;47.982;7.810;2022-07-23T10:30:18;98839.06;;;27.00;92.38
1616;BME280;801;47.982;7.810;2022-07-23T10:32:58;98839.78;;;27.17;94.59
1616;BME280;801;47.982;7.810;2022-07-23T10:35:33;98834.50;;;26.88;95.02
1616;BME280;801;47.982;7.810;2022-07-23T10:38:11;98837.09;;;27.20;92.37
1616;BME280;801;47.982;7.810;2022-07-23T10:40:53;98836.31;;;27.20;93.23
1616;BME280;801;47.982;7.810;2022-07-23T10:43:22;98839.91;;;27.43;91.82
1616;BME280;801;47.982;7.810;2022-07-23T10:45:49;98844.06;;;27.14;93.69
1616;BME280;801;47.982;7.810;2022-07-23T10:48:17;98844.66;;;27.23;92.30
1616;BME280;801;47.982;7.810;2022-07-23T10:51:06;98835.66;;;27.26;92.30
1616;BME280;801;47.982;7.810;2022-07-23T10:53:54;98839.28;;;28.00;91.45
1616;BME280;801;47.982;7.810;2022-07-23T10:57:04;98839.50;;;28.14;87.60
1616;BME280;801;47.982;7.810;2022-07-23T11:00:17;98851.78;;;27.24;94.21
1616;BME280;801;47.982;7.810;2022-07-23T11:02:47;98844.13;;;27.83;90.37
1616;BME280;801;47.982;7.810;2022-07-23T11:05:15;98851.94;;;27.78;89.69
1616;BME280;801;47.982;7.810;2022-07-23T11:08:12;98842.69;;;27.24;95.22
1616;BME280;801;47.982;7.810;2022-07-23T11:10:42;98851.44;;;27.72;96.53
1616;BME280;801;47.982;7.810;2022-07-23T11:16:22;98844.94;;;28.07;97.28
1616;BME280;801;47.982;7.810;2022-07-23T11:19:04;98845.47;;;27.70;100.00
1616;BME280;801;47.982;7.810;2022-07-23T11:21:44;98844.94;;;27.61;100.00
1616;BME280;801;47.982;7.810;2022-07-23T11:24:12;98843.91;;;28.19;100.00
1616;BME280;801;47.982;7.810;2022-07-23T11:26:54;98837.81;;;28.93;96.20
1616;BME280;801;47.982;7.810;2022-07-23T11:29:44;98839.16;;;28.46;88.81
1616;BME280;801;47.982;7.810;2022-07-23T11:32:30;98834.47;;;28.76;88.05
1616;BME280;801;47.982;7.810;2022-07-23T11:34:58;98843.09;;;28.71;90.02
1616;BME280;801;47.982;7.810;2022-07-23T11:37:33;98839.44;;;28.37;92.78
1616;BME280;801;47.982;7.810;2022-07-23T11:40:01;98840.97;;;28.34;93.14
1616;BME280;801;47.982;7.810;2022-07-23T11:42:29;98828.56;;;28.48;90.31
1616;BME280;801;47.982;7.810;2022-07-23T11:44:55;98837.72;;;28.55;91.96
1616;BME280;801;47.982;7.810;2022-07-23T11:47:26;98830.88;;;28.46;85.86
1616;BME280;801;47.982;7.810;2022-07-23T11:49:53;98835.03;;;28.89;82.65
1616;BME280;801;47.982;7.810;2022-07-23T11:52:20;98826.75;;;28.93;84.71
1616;BME280;801;47.982;7.810;2022-07-23T11:54:50;98828.25;;;28.87;87.13
1616;BME280;801;47.982;7.810;2022-07-23T11:57:17;98826.50;;;28.71;86.59
1616;BME280;801;47.982;7.810;2022-07-23T11:59:46;98828.16;;;29.47;79.70
1616;BME280;801;47.982;7.810;2022-07-23T12:02:12;98829.88;;;29.66;81.37
1616;BME280;801;47.982;7.810;2022-07-23T12:04:42;98822.81;;;29.28;83.08
1616;BME280;801;47.982;7.810;2022-07-23T12:07:25;98830.63;;;28.85;84.34
1616;BME280;801;47.982;7.810;2022-07-23T12:09:53;98830.44;;;29.04;83.43
1616;BME280;801;47.982;7.810;2022-07-23T12:12:19;98830.84;;;29.81;78.99
1616;BME280;801;47.982;7.810;2022-07-23T12:14:48;98833.06;;;30.20;74.51
1616;BME280;801;47.982;7.810;2022-07-23T12:17:15;98823.53;;;30.10;73.22
1616;BME280;801;47.982;7.810;2022-07-23T12:19:43;98821.78;;;29.91;75.30
1616;BME280;801;47.982;7.810;2022-07-23T12:22:10;98818.81;;;30.18;72.80
1616;BME280;801;47.982;7.810;2022-07-23T12:24:52;98818.22;;;30.50;71.41
1616;BME280;801;47.982;7.810;2022-07-23T12:27:20;98822.41;;;30.88;68.78
1616;BME280;801;47.982;7.810;2022-07-23T12:29:47;98815.22;;;30.83;67.40
1616;BME280;801;47.982;7.810;2022-07-23T12:32:20;98811.34;;;31.13;65.13
1616;BME280;801;47.982;7.810;2022-07-23T12:35:03;98809.44;;;31.50;63.90
1616;BME280;801;47.982;7.810;2022-07-23T12:37:33;98816.53;;;31.36;65.99
1616;BME280;801;47.982;7.810;2022-07-23T12:40:21;98806.59;;;32.39;62.28
1616;BME280;801;47.982;7.810;2022-07-23T12:42:49;98801.09;;;32.03;61.85
1616;BME280;801;47.982;7.810;2022-07-23T12:45:17;98793.91;;;32.24;60.19
1616;BME280;801;47.982;7.810;2022-07-23T12:47:59;98803.38;;;32.59;59.34
1616;BME280;801;47.982;7.810;2022-07-23T12:50:40;98804.69;;;33.17;55.28
1616;BME280;801;47.982;7.810;2022-07-23T12:53:09;98802.59;;;32.55;57.60
1616;BME280;801;47.982;7.810;2022-07-23T12:55:37;98813.81;;;32.04;58.24
1616;BME280;801;47.982;7.810;2022-07-23T12:58:10;98812.16;;;31.17;62.71
1616;BME280;801;47.982;7.810;2022-07-23T13:00:56;98804.00;;;30.55;65.35
1616;BME280;801;47.982;7.810;2022-07-23T13:03:24;98804.59;;;31.14;63.93
1616;BME280;801;47.982;7.810;2022-07-23T13:05:53;98804.25;;;31.19;61.19
1616;BME280;801;47.982;7.810;2022-07-23T13:08:19;98805.84;;;31.92;59.15
1616;BME280;801;47.982;7.810;2022-07-23T13:10:46;98800.31;;;31.81;57.73
1616;BME280;801;47.982;7.810;2022-07-23T13:13:14;98797.56;;;31.60;59.12
1616;BME280;801;47.982;7.810;2022-07-23T13:15:41;98790.78;;;31.39;59.54
1616;BME280;801;47.982;7.810;2022-07-23T13:18:07;98793.38;;;30.71;61.40
1616;BME280;801;47.982;7.810;2022-07-23T13:20:34;98793.63;;;30.37;62.88
1616;BME280;801;47.982;7.810;2022-07-23T13:23:03;98794.97;;;30.72;60.04
1616;BME280;801;47.982;7.810;2022-07-23T13:25:29;98787.19;;;31.32;59.14
1616;BME280;801;47.982;7.810;2022-07-23T13:27:56;98798.66;;;31.12;58.91
1616;BME280;801;47.982;7.810;2022-07-23T13:30:22;98792.69;;;31.03;57.05
1616;BME280;801;47.982;7.810;2022-07-23T13:32:48;98794.56;;;30.81;58.65
1616;BME280;801;47.982;7.810;2022-07-23T13:35:15;98802.50;;;30.75;56.04
1616;BME280;801;47.982;7.810;2022-07-23T13:37:42;98797.47;;;31.20;56.25
1616;BME280;801;47.982;7.810;2022-07-23T13:40:10;98799.44;;;31.09;56.13
1616;BME280;801;47.982;7.810;2022-07-23T13:42:37;98798.28;;;31.24;53.74
1616;BME280;801;47.982;7.810;2022-07-23T13:45:05;98792.38;;;31.65;51.82
1616;BME280;801;47.982;7.810;2022-07-23T13:47:32;98794.38;;;31.72;51.35
1616;BME280;801;47.982;7.810;2022-07-23T13:49:59;98793.16;;;32.13;50.18
1616;BME280;801;47.982;7.810;2022-07-23T13:52:26;98795.53;;;32.11;48.49
1616;BME280;801;47.982;7.810;2022-07-23T13:54:52;98798.31;;;31.85;50.70
1616;BME280;801;47.982;7.810;2022-07-23T13:57:20;98789.50;;;33.29;45.96
1616;BME280;801;47.982;7.810;2022-07-23T13:59:47;98790.91;;;34.38;44.53
1616;BME280;801;47.982;7.810;2022-07-23T14:02:15;98794.16;;;34.98;43.42
1616;BME280;801;47.982;7.810;2022-07-23T14:04:43;98790.78;;;34.15;44.16
1616;BME280;801;47.982;7.810;2022-07-23T14:07:09;98790.50;;;32.94;45.61
1616;BME280;801;47.982;7.810;2022-07-23T14:09:36;98778.38;;;32.52;45.33
1616;BME280;801;47.982;7.810;2022-07-23T14:12:03;98786.81;;;31.87;45.27
1616;BME280;801;47.982;7.810;2022-07-23T14:14:32;98782.06;;;32.09;45.48
1616;BME280;801;47.982;7.810;2022-07-23T14:16:58;98794.78;;;32.07;44.33
1616;BME280;801;47.982;7.810;2022-07-23T14:19:25;98784.84;;;31.62;45.56
1616;BME280;801;47.982;7.810;2022-07-23T14:21:51;98788.00;;;31.79;46.29
1616;BME280;801;47.982;7.810;2022-07-23T14:24:18;98792.34;;;31.33;46.83
1616;BME280;801;47.982;7.810;2022-07-23T14:26:45;98778.00;;;30.92;48.17
1616;BME280;801;47.982;7.810;2022-07-23T14:29:12;98780.03;;;31.16;48.15
1616;BME280;801;47.982;7.810;2022-07-23T14:31:39;98780.31;;;30.82;47.79
1616;BME280;801;47.982;7.810;2022-07-23T14:34:06;98776.88;;;31.11;48.57
1616;BME280;801;47.982;7.810;2022-07-23T14:36:32;98772.13;;;31.36;53.48
1616;BME280;801;47.982;7.810;2022-07-23T14:39:00;98776.91;;;31.43;54.22
1616;BME280;801;47.982;7.810;2022-07-23T14:41:26;98770.16;;;31.40;56.02
1616;BME280;801;47.982;7.810;2022-07-23T14:43:53;98770.13;;;31.30;57.75
1616;BME280;801;47.982;7.810;2022-07-23T14:46:19;98772.44;;;30.92;58.78
1616;BME280;801;47.982;7.810;2022-07-23T14:48:47;98770.91;;;31.16;58.04
1616;BME280;801;47.982;7.810;2022-07-23T14:51:14;98770.47;;;30.92;58.26
1616;BME280;801;47.982;7.810;2022-07-23T14:53:40;98770.84;;;30.83;57.91
1616;BME280;801;47.982;7.810;2022-07-23T14:56:07;98772.50;;;31.28;57.85
1616;BME280;801;47.982;7.810;2022-07-23T14:58:34;98763.00;;;31.86;55.95
1616;BME280;801;47.982;7.810;2022-07-23T15:01:01;98772.13;;;31.29;57.15
1616;BME280;801;47.982;7.810;2022-07-23T15:03:27;98779.47;;;30.57;59.87
1616;BME280;801;47.982;7.810;2022-07-23T15:05:55;98775.91;;;30.64;60.19
1616;BME280;801;47.982;7.810;2022-07-23T15:08:21;98770.91;;;31.12;57.48
1616;BME280;801;47.982;7.810;2022-07-23T15:10:48;98787.91;;;30.96;59.44
1616;BME280;801;47.982;7.810;2022-07-23T15:13:14;98777.09;;;30.62;60.21
1616;BME280;801;47.982;7.810;2022-07-23T15:15:41;98780.56;;;30.34;62.38
1616;BME280;801;47.982;7.810;2022-07-23T15:18:08;98773.84;;;30.42;63.27
1616;BME280;801;47.982;7.810;2022-07-23T15:20:35;98776.63;;;30.46;64.73
1616;BME280;801;47.982;7.810;2022-07-23T15:23:04;98777.88;;;30.63;63.70
1616;BME280;801;47.982;7.810;2022-07-23T15:25:31;98780.00;;;31.02;62.07
1616;BME280;801;47.982;7.810;2022-07-23T15:27:58;98779.69;;;31.72;57.73
1616;BME280;801;47.982;7.810;2022-07-23T15:30:25;98779.63;;;32.29;55.48
1616;BME280;801;47.982;7.810;2022-07-23T15:32:52;98770.41;;;33.27;52.10
1616;BME280;801;47.982;7.810;2022-07-23T15:35:19;98769.91;;;32.73;52.21
1616;BME280;801;47.982;7.810;2022-07-23T15:37:45;98775.59;;;32.41;51.72
1616;BME280;801;47.982;7.810;2022-07-23T15:40:13;98763.41;;;33.61;48.74
1616;BME280;801;47.982;7.810;2022-07-23T15:42:40;98773.28;;;33.69;48.22
1616;BME280;801;47.982;7.810;2022-07-23T15:45:07;98778.03;;;32.24;48.48
1616;BME280;801;47.982;7.810;2022-07-23T15:47:34;98774.78;;;32.55;47.26
1616;BME280;801;47.982;7.810;2022-07-23T15:50:01;98773.72;;;33.08;46.56
1616;BME280;801;47.982;7.810;2022-07-23T15:52:27;98774.34;;;33.34;45.77
1616;BME280;801;47.982;7.810;2022-07-23T15:54:54;98781.63;;;33.20;44.03
1616;BME280;801;47.982;7.810;2022-07-23T15:57:21;98775.47;;;32.73;43.55
1616;BME280;801;47.982;7.810;2022-07-23T15:59:48;98770.63;;;32.92;42.72
1616;BME280;801;47.982;7.810;2022-07-23T16:02:14;98769.50;;;33.41;40.98
1616;BME280;801;47.982;7.810;2022-07-23T16:04:42;98777.47;;;33.43;41.33
1616;BME280;801;47.982;7.810;2022-07-23T16:07:08;98765.13;;;32.77;44.04
1616;BME280;801;47.982;7.810;2022-07-23T16:09:34;98764.97;;;32.18;47.66
1616;BME280;801;47.982;7.810;2022-07-23T16:12:01;98765.41;;;33.60;44.81